createdAt,value
2023-04-02T00:00:11.629Z,100564.91
2023-04-02T00:02:59.112Z,100577.88
2023-04-02T00:05:30.554Z,100583.16
2023-04-02T00:08:00.547Z,100591.06
2023-04-02T00:10:35.036Z,100592.66
2023-04-02T00:13:17.565Z,100586.16
2023-04-02T00:15:47.454Z,100596.56
2023-04-02T00:18:17.461Z,100599.63
2023-04-02T00:21:11.907Z,100603.34
2023-04-02T00:23:40.551Z,100610.00
2023-04-02T00:26:21.830Z,100604.34
2023-04-02T00:28:48.802Z,100613.75
2023-04-02T00:31:18.613Z,100623.16
2023-04-02T00:33:46.601Z,100620.91
2023-04-02T00:36:13.555Z,100616.81
2023-04-02T00:38:43.823Z,100625.06
2023-04-02T00:41:21.190Z,100632.84
2023-04-02T00:43:51.317Z,100642.94
2023-04-02T00:46:24.347Z,100638.34
2023-04-02T00:49:12.682Z,100648.19
2023-04-02T00:51:46.601Z,100644.81
2023-04-02T00:54:15.894Z,100648.19
2023-04-02T00:56:48.798Z,100653.91
2023-04-02T00:59:18.376Z,100655.72
2023-04-02T01:01:45.410Z,100648.94
2023-04-02T01:04:29.261Z,100653.53
2023-04-02T01:07:31.856Z,100656.56
2023-04-02T01:10:36.753Z,100660.63
2023-04-02T01:13:32.781Z,100679.06
2023-04-02T01:16:13.385Z,100673.41
2023-04-02T01:18:50.407Z,100674.31
2023-04-02T01:21:28.922Z,100680.75
2023-04-02T01:24:10.897Z,100677.72
2023-04-02T01:26:52.421Z,100700.75
2023-04-02T01:29:40.791Z,100694.81
2023-04-02T01:32:19.807Z,100703.13
2023-04-02T01:34:48.602Z,100711.59
2023-04-02T01:37:38.868Z,100703.34
2023-04-02T01:40:35.042Z,100700.88
2023-04-02T01:43:27.305Z,100718.22
2023-04-02T01:45:53.810Z,100713.31
2023-04-02T01:48:27.241Z,100729.50
2023-04-02T01:50:56.857Z,100724.41
2023-04-02T01:53:25.879Z,100730.97
2023-04-02T01:55:59.435Z,100732.06
2023-04-02T01:58:31.269Z,100747.63
2023-04-02T02:01:09.421Z,100757.47
2023-04-02T02:03:43.524Z,100751.78
2023-04-02T02:06:16.456Z,100754.78
2023-04-02T02:09:04.257Z,100767.66
2023-04-02T02:11:32.789Z,100771.59
2023-04-02T02:14:00.769Z,100766.66
2023-04-02T02:16:29.851Z,100775.16
2023-04-02T02:19:01.673Z,100777.50
2023-04-02T02:21:39.245Z,100777.72
2023-04-02T02:24:16.249Z,100786.03
2023-04-02T02:26:44.884Z,100785.94
2023-04-02T02:29:15.726Z,100786.34
2023-04-02T02:31:44.752Z,100801.72
2023-04-02T02:34:21.726Z,100798.50
2023-04-02T02:36:54.918Z,100803.50
2023-04-02T02:39:58.828Z,100808.88
2023-04-02T02:42:25.215Z,100813.28
2023-04-02T02:44:53.879Z,100812.78
2023-04-02T02:47:26.628Z,100827.22
2023-04-02T02:49:58.991Z,100824.63
2023-04-02T02:52:28.310Z,100834.41
2023-04-02T02:55:08.559Z,100825.75
2023-04-02T02:57:42.194Z,100838.31
2023-04-02T03:00:11.718Z,100840.16
2023-04-02T03:02:41.611Z,100842.16
2023-04-02T03:05:09.960Z,100855.97
2023-04-02T03:07:37.372Z,100851.69
2023-04-02T03:10:16.389Z,100855.97
2023-04-02T03:12:53.068Z,100874.56
2023-04-02T03:15:32.142Z,100869.69
2023-04-02T03:18:20.320Z,100876.69
2023-04-02T03:21:01.940Z,100883.53
2023-04-02T03:23:35.299Z,100883.91
2023-04-02T03:26:08.071Z,100889.06
2023-04-02T03:28:50.009Z,100892.16
2023-04-02T03:31:26.608Z,100896.72
2023-04-02T03:33:59.476Z,100900.38
2023-04-02T03:36:35.342Z,100909.34
2023-04-02T03:39:24.073Z,100910.09
2023-04-02T03:42:01.968Z,100915.38
2023-04-02T03:44:36.478Z,100914.44
2023-04-02T03:47:16.173Z,100927.69
2023-04-02T03:50:11.988Z,100926.22
2023-04-02T03:52:39.290Z,100940.75
2023-04-02T03:55:33.729Z,100943.06
2023-04-02T03:58:18.873Z,100940.72
2023-04-02T04:00:54.151Z,100945.28
2023-04-02T04:03:38.991Z,100948.22
2023-04-02T04:06:29.635Z,100946.38
2023-04-02T04:09:01.727Z,100959.38
2023-04-02T04:11:35.338Z,100957.97
2023-04-02T04:14:16.699Z,100962.34
2023-04-02T04:16:53.702Z,100973.00
2023-04-02T04:19:58.474Z,100990.25
2023-04-02T04:22:30.653Z,100979.28
2023-04-02T04:25:06.371Z,100985.53
2023-04-02T04:28:08.930Z,100989.09
2023-04-02T04:30:59.976Z,100994.06
2023-04-02T04:33:39.813Z,101006.59
2023-04-02T04:36:19.165Z,101007.06
2023-04-02T04:38:55.246Z,101011.56
2023-04-02T04:41:26.754Z,101016.06
2023-04-02T04:43:53.068Z,101030.06
2023-04-02T04:46:27.784Z,101028.19
2023-04-02T04:48:54.278Z,101034.78
2023-04-02T04:51:26.238Z,101034.50
2023-04-02T04:53:55.164Z,101029.03
2023-04-02T04:56:25.848Z,101042.94
2023-04-02T04:59:07.334Z,101051.75
2023-04-02T05:01:38.570Z,101053.22
2023-04-02T05:04:32.774Z,101052.44
2023-04-02T05:07:17.395Z,101063.53
2023-04-02T05:09:54.525Z,101071.81
2023-04-02T05:12:37.902Z,101071.13
2023-04-02T05:15:09.375Z,101079.09
2023-04-02T05:17:41.303Z,101082.34
2023-04-02T05:20:16.290Z,101085.78
2023-04-02T05:22:47.142Z,101092.63
2023-04-02T05:25:28.643Z,101086.75
2023-04-02T05:28:26.713Z,101106.84
2023-04-02T05:31:01.017Z,101109.78
2023-04-02T05:33:29.959Z,101105.91
2023-04-02T05:36:03.916Z,101118.13
2023-04-02T05:38:35.390Z,101124.03
2023-04-02T05:41:21.298Z,101122.63
2023-04-02T05:43:54.361Z,101134.03
2023-04-02T05:46:27.350Z,101132.84
2023-04-02T05:48:59.248Z,101131.78
2023-04-02T05:51:41.301Z,101134.03
2023-04-02T05:54:23.101Z,101141.53
2023-04-02T05:56:56.323Z,101149.28
2023-04-02T05:59:30.205Z,101154.25
2023-04-02T06:02:08.728Z,101159.19
2023-04-02T06:10:12.070Z,101172.16
2023-04-02T06:12:47.073Z,101176.59
2023-04-02T06:15:18.983Z,101180.81
2023-04-02T06:17:58.531Z,101186.19
2023-04-02T06:20:26.263Z,101184.78
2023-04-02T06:23:03.367Z,101189.91
2023-04-02T06:25:48.381Z,101191.63
2023-04-02T06:28:24.602Z,101205.50
2023-04-02T06:39:24.779Z,101218.41
2023-04-02T06:42:11.656Z,101224.19
2023-04-02T06:44:38.496Z,101231.47
2023-04-02T06:47:29.803Z,101236.66
2023-04-02T06:50:14.954Z,101237.56
2023-04-02T06:52:49.622Z,101244.56
2023-04-02T06:55:43.335Z,101245.53
2023-04-02T06:58:10.040Z,101255.81
2023-04-02T07:00:40.939Z,101258.13
2023-04-02T07:03:14.678Z,101253.59
2023-04-02T07:05:43.075Z,101254.34
2023-04-02T07:08:09.742Z,101252.09
2023-04-02T07:10:36.276Z,101252.00
2023-04-02T07:13:03.085Z,101256.75
2023-04-02T07:15:29.738Z,101266.22
2023-04-02T07:17:59.019Z,101266.19
2023-04-02T07:20:38.911Z,101265.25
2023-04-02T07:23:05.409Z,101278.13
2023-04-02T07:25:31.863Z,101281.03
2023-04-02T07:27:58.346Z,101281.63
2023-04-02T07:30:24.847Z,101281.91
2023-04-02T07:32:51.343Z,101283.31
2023-04-02T07:35:17.904Z,101279.75
2023-04-02T07:37:44.335Z,101293.00
2023-04-02T07:40:20.990Z,101295.22
2023-04-02T07:42:47.513Z,101287.50
2023-04-02T07:45:14.249Z,101296.81
2023-04-02T07:47:41.016Z,101310.75
2023-04-02T07:50:08.459Z,101308.50
2023-04-02T07:52:42.482Z,101305.75
2023-04-02T07:55:14.289Z,101324.50
2023-04-02T07:57:56.966Z,101323.03
2023-04-02T08:00:26.953Z,101327.47
2023-04-02T08:02:53.684Z,101325.53
2023-04-02T08:05:20.434Z,101342.34
2023-04-02T08:07:55.012Z,101346.91
2023-04-02T08:10:21.809Z,101340.47
2023-04-02T08:12:49.578Z,101344.56
2023-04-02T08:15:16.473Z,101349.59
2023-04-02T08:17:43.431Z,101349.75
2023-04-02T08:20:18.061Z,101359.13
2023-04-02T08:22:46.076Z,101357.91
2023-04-02T08:25:13.008Z,101357.06
2023-04-02T08:27:39.755Z,101360.91
2023-04-02T08:30:08.033Z,101365.41
2023-04-02T08:32:35.302Z,101364.75
2023-04-02T08:35:02.837Z,101382.91
2023-04-02T08:37:29.361Z,101382.38
2023-04-02T08:39:55.956Z,101379.59
2023-04-02T08:42:24.553Z,101388.63
2023-04-02T08:44:56.722Z,101397.66
2023-04-02T08:47:26.311Z,101390.25
2023-04-02T08:50:06.785Z,101407.16
2023-04-02T08:52:37.288Z,101400.75
2023-04-02T08:55:18.808Z,101412.88
2023-04-02T08:57:54.218Z,101420.31
2023-04-02T09:00:40.210Z,101414.50
2023-04-02T09:03:13.627Z,101423.47
2023-04-02T09:05:43.318Z,101434.22
2023-04-02T09:08:18.739Z,101429.56
2023-04-02T09:11:08.297Z,101432.53
2023-04-02T09:13:40.229Z,101444.91
2023-04-02T09:16:16.248Z,101437.13
2023-04-02T09:18:45.056Z,101442.66
2023-04-02T09:21:20.821Z,101439.88
2023-04-02T09:23:47.982Z,101444.69
2023-04-02T09:26:23.545Z,101445.50
2023-04-02T09:29:02.021Z,101449.84
2023-04-02T09:31:43.254Z,101451.03
2023-04-02T09:34:33.629Z,101459.91
2023-04-02T09:37:25.369Z,101466.56
2023-04-02T09:39:52.181Z,101461.97
2023-04-02T09:42:38.060Z,101480.03
2023-04-02T09:45:22.850Z,101475.78
2023-04-02T09:47:51.441Z,101484.34
2023-04-02T09:50:34.455Z,101485.06
2023-04-02T09:53:30.772Z,101496.41
2023-04-02T09:56:15.596Z,101500.50
2023-04-02T09:58:44.301Z,101499.34
2023-04-02T10:01:28.950Z,101491.25
2023-04-02T10:03:56.638Z,101495.34
2023-04-02T10:06:23.624Z,101489.09
2023-04-02T10:08:50.232Z,101496.72
2023-04-02T10:11:33.634Z,101506.44
2023-04-02T10:14:24.383Z,101507.94
2023-04-02T10:16:58.135Z,101503.22
2023-04-02T10:19:31.455Z,101513.91
2023-04-02T10:22:00.720Z,101504.03
2023-04-02T10:24:28.649Z,101514.72
2023-04-02T10:27:27.741Z,101504.97
2023-04-02T10:30:22.753Z,101516.69
2023-04-02T10:33:03.416Z,101521.03
2023-04-02T10:35:41.793Z,101519.91
2023-04-02T10:38:48.486Z,101522.91
2023-04-02T10:41:43.278Z,101522.50
2023-04-02T10:44:28.470Z,101519.06
2023-04-02T10:47:19.845Z,101538.81
2023-04-02T10:49:49.449Z,101538.13
2023-04-02T10:52:26.142Z,101545.88
2023-04-02T10:55:02.393Z,101544.88
2023-04-02T10:57:39.432Z,101547.47
2023-04-02T11:00:12.561Z,101554.41
2023-04-02T11:02:49.690Z,101546.16
2023-04-02T11:05:37.188Z,101553.13
2023-04-02T11:08:10.590Z,101565.72
2023-04-02T11:10:40.386Z,101563.50
2023-04-02T11:13:35.943Z,101568.81
2023-04-02T11:16:03.697Z,101572.69
2023-04-02T11:18:35.801Z,101571.00
2023-04-02T11:21:05.046Z,101580.69
2023-04-02T11:23:34.222Z,101585.97
2023-04-02T11:26:38.222Z,101590.78
2023-04-02T11:29:13.078Z,101599.50
2023-04-02T11:31:39.975Z,101603.91
2023-04-02T11:34:06.618Z,101598.25
2023-04-02T11:36:52.613Z,101600.38
2023-04-02T11:39:51.061Z,101612.22
2023-04-02T11:42:33.995Z,101605.78
2023-04-02T11:45:21.063Z,101608.31
2023-04-02T11:47:59.790Z,101617.56
2023-04-02T11:50:39.957Z,101617.50
2023-04-02T11:53:12.374Z,101618.97
2023-04-02T11:55:40.888Z,101612.22
2023-04-02T11:58:28.397Z,101625.69
2023-04-02T12:01:11.884Z,101623.81
2023-04-02T12:04:02.420Z,101634.28
2023-04-02T12:07:06.849Z,101633.72
2023-04-02T12:09:50.314Z,101640.00
2023-04-02T12:12:28.821Z,101624.28
2023-04-02T12:14:57.642Z,101634.09
2023-04-02T12:17:38.993Z,101637.78
2023-04-02T12:20:09.418Z,101644.38
2023-04-02T12:22:46.068Z,101645.47
2023-04-02T12:25:18.554Z,101642.78
2023-04-02T12:27:46.528Z,101646.41
2023-04-02T12:30:13.130Z,101651.00
2023-04-02T12:32:39.881Z,101651.25
2023-04-02T12:35:08.315Z,101650.06
2023-04-02T12:37:34.776Z,101657.25
2023-04-02T12:40:15.793Z,101651.94
2023-04-02T12:42:42.212Z,101662.97
2023-04-02T12:45:27.925Z,101648.34
2023-04-02T12:47:57.056Z,101668.53
2023-04-02T12:50:23.955Z,101665.97
2023-04-02T12:52:53.357Z,101669.41
2023-04-02T12:55:25.667Z,101671.31
2023-04-02T12:58:01.348Z,101662.00
2023-04-02T13:00:32.076Z,101669.03
2023-04-02T13:03:17.386Z,101670.69
2023-04-02T13:05:48.955Z,101667.84
2023-04-02T13:08:51.157Z,101673.00
2023-04-02T13:11:17.968Z,101668.72
2023-04-02T13:13:46.980Z,101669.03
2023-04-02T13:16:19.239Z,101673.00
2023-04-02T13:18:48.202Z,101672.06
2023-04-02T13:21:14.629Z,101672.06
2023-04-02T13:23:41.124Z,101676.97
2023-04-02T13:26:28.183Z,101662.91
2023-04-02T13:29:02.120Z,101676.19
2023-04-02T13:31:31.001Z,101679.88
2023-04-02T13:33:58.627Z,101677.41
2023-04-02T13:36:26.010Z,101672.13
2023-04-02T13:38:52.757Z,101682.88
2023-04-02T13:41:23.241Z,101690.00
2023-04-02T13:43:50.895Z,101687.16
2023-04-02T13:46:24.556Z,101690.50
2023-04-02T13:48:53.109Z,101692.25
2023-04-02T13:51:22.657Z,101699.75
2023-04-02T13:53:55.890Z,101697.09
2023-04-02T13:56:24.424Z,101698.88
2023-04-02T13:58:51.967Z,101697.09
2023-04-02T14:01:21.382Z,101693.28
2023-04-02T14:03:47.905Z,101704.03
2023-04-02T14:06:42.465Z,101697.75
2023-04-02T14:09:27.249Z,101699.75
2023-04-02T14:12:28.528Z,101704.22
2023-04-02T14:15:24.047Z,101701.06
2023-04-02T14:18:16.524Z,101706.69
2023-04-02T14:21:03.664Z,101705.06
2023-04-02T14:23:56.174Z,101706.13
2023-04-02T14:26:58.785Z,101711.78
2023-04-02T14:29:35.945Z,101715.78
2023-04-02T14:32:06.454Z,101723.56
2023-04-02T14:34:51.192Z,101726.78
2023-04-02T14:37:38.740Z,101719.41
2023-04-02T14:40:17.079Z,101729.91
2023-04-02T14:42:57.215Z,101735.78
2023-04-02T14:45:45.736Z,101736.13
2023-04-02T14:48:35.025Z,101728.75
2023-04-02T14:51:34.302Z,101730.69
2023-04-02T14:54:18.031Z,101749.00
2023-04-02T14:56:49.075Z,101743.09
2023-04-02T14:59:31.566Z,101747.06
2023-04-02T15:02:04.285Z,101744.34
2023-04-02T15:04:50.928Z,101745.19
2023-04-02T15:07:22.337Z,101749.31
2023-04-02T15:09:59.796Z,101747.81
2023-04-02T15:12:32.480Z,101762.38
2023-04-02T15:15:08.730Z,101762.06
2023-04-02T15:17:36.189Z,101764.84
2023-04-02T15:20:13.765Z,101772.31
2023-04-02T15:23:12.669Z,101780.34
2023-04-02T15:25:55.396Z,101768.38
2023-04-02T15:28:35.051Z,101774.34
2023-04-02T15:31:07.369Z,101776.97
2023-04-02T15:33:41.650Z,101781.41
2023-04-02T15:36:29.457Z,101791.97
2023-04-02T15:39:08.263Z,101800.97
2023-04-02T15:41:58.995Z,101802.78
2023-04-02T15:44:25.623Z,101806.06
2023-04-02T15:47:03.448Z,101800.88
2023-04-02T15:49:38.099Z,101815.78
2023-04-02T15:52:16.033Z,101810.41
2023-04-02T15:54:54.914Z,101828.47
2023-04-02T15:57:40.668Z,101833.19
2023-04-02T16:00:22.400Z,101841.88
2023-04-02T16:03:06.009Z,101837.63
2023-04-02T16:05:43.347Z,101838.53
2023-04-02T16:08:34.834Z,101842.22
2023-04-02T16:11:01.405Z,101835.97
2023-04-02T16:13:41.467Z,101843.44
2023-04-02T16:16:30.619Z,101853.84
2023-04-02T16:19:25.939Z,101857.06
2023-04-02T16:22:26.549Z,101863.16
2023-04-02T16:25:01.603Z,101865.28
2023-04-02T16:27:45.448Z,101875.13
2023-04-02T16:30:26.906Z,101871.69
2023-04-02T16:33:14.596Z,101878.09
2023-04-02T16:36:05.752Z,101886.69
2023-04-02T16:38:41.013Z,101891.31
2023-04-02T16:41:09.072Z,101896.25
2023-04-02T16:44:13.235Z,101904.19
2023-04-02T16:47:18.848Z,101899.13
2023-04-02T16:49:54.708Z,101905.91
2023-04-02T16:52:42.636Z,101913.22
2023-04-02T16:55:45.338Z,101918.91
2023-04-02T16:58:27.048Z,101921.56
2023-04-02T17:01:00.560Z,101921.66
2023-04-02T17:03:52.290Z,101926.66
2023-04-02T17:06:34.058Z,101930.91
2023-04-02T17:09:14.703Z,101936.28
2023-04-02T17:12:15.001Z,101931.81
2023-04-02T17:14:51.139Z,101939.13
2023-04-02T17:17:18.227Z,101944.59
2023-04-02T17:19:45.192Z,101939.59
2023-04-02T17:22:18.714Z,101944.75
2023-04-02T17:24:51.643Z,101951.81
2023-04-02T17:27:39.388Z,101953.31
2023-04-02T17:30:19.761Z,101960.59
2023-04-02T17:32:47.854Z,101976.69
2023-04-02T17:35:41.461Z,101979.25
2023-04-02T17:38:33.089Z,101969.75
2023-04-02T17:41:10.621Z,101978.47
2023-04-02T17:43:49.456Z,101989.25
2023-04-02T17:46:34.652Z,101994.00
2023-04-02T17:49:26.387Z,101993.81
2023-04-02T17:52:08.513Z,101995.97
2023-04-02T17:55:06.392Z,101998.84
2023-04-02T17:57:51.671Z,102006.19
2023-04-02T18:00:48.976Z,102014.31
2023-04-02T18:03:29.940Z,102021.16
2023-04-02T18:06:03.585Z,102018.94
2023-04-02T18:08:45.506Z,102019.91
2023-04-02T18:11:20.760Z,102028.44
2023-04-02T18:13:59.057Z,102028.78
2023-04-02T18:16:46.808Z,102028.97
2023-04-02T18:19:21.843Z,102040.59
2023-04-02T18:22:27.222Z,102037.59
2023-04-02T18:25:14.854Z,102045.66
2023-04-02T18:27:44.476Z,102047.78
2023-04-02T18:30:37.259Z,102050.53
2023-04-02T18:33:49.482Z,102063.03
2023-04-02T18:36:50.990Z,102068.69
2023-04-02T18:40:06.054Z,102076.44
2023-04-02T18:43:00.128Z,102080.13
2023-04-02T18:45:54.763Z,102089.13
2023-04-02T18:48:30.606Z,102091.66
2023-04-02T18:51:00.400Z,102089.69
2023-04-02T18:53:31.101Z,102091.59
2023-04-02T18:56:04.414Z,102093.59
2023-04-02T18:58:39.906Z,102097.88
2023-04-02T19:01:15.962Z,102113.88
2023-04-02T19:03:51.364Z,102111.00
2023-04-02T19:06:26.175Z,102122.41
2023-04-02T19:09:11.634Z,102119.91
2023-04-02T19:11:38.382Z,102117.56
2023-04-02T19:14:12.122Z,102120.97
2023-04-02T19:16:56.630Z,102129.38
2023-04-02T19:19:44.429Z,102135.97
2023-04-02T19:22:18.489Z,102146.66
2023-04-02T19:25:24.719Z,102142.00
2023-04-02T19:28:04.403Z,102138.50
2023-04-02T19:31:08.650Z,102155.25
2023-04-02T19:33:52.945Z,102158.50
2023-04-02T19:36:32.552Z,102155.19
2023-04-02T19:39:08.183Z,102167.06
2023-04-02T19:41:48.493Z,102161.50
2023-04-02T19:44:16.372Z,102166.81
2023-04-02T19:46:43.465Z,102169.56
2023-04-02T19:49:16.931Z,102166.28
2023-04-02T19:51:43.957Z,102176.44
2023-04-02T19:54:10.721Z,102173.97
2023-04-02T19:56:37.423Z,102174.19
2023-04-02T19:59:17.159Z,102188.31
2023-04-02T20:01:45.209Z,102174.28
2023-04-02T20:04:11.901Z,102186.84
2023-04-02T20:06:38.517Z,102191.03
2023-04-02T20:09:04.971Z,102194.00
2023-04-02T20:11:31.405Z,102193.94
2023-04-02T20:13:57.943Z,102192.38
2023-04-02T20:16:24.559Z,102199.50
2023-04-02T20:18:51.287Z,102203.94
2023-04-02T20:21:18.092Z,102213.19
2023-04-02T20:23:44.740Z,102216.72
2023-04-02T20:26:12.611Z,102207.13
2023-04-02T20:28:39.761Z,102217.56
2023-04-02T20:31:17.725Z,102226.25
2023-04-02T20:33:44.511Z,102226.41
2023-04-02T20:36:14.501Z,102230.06
2023-04-02T20:38:41.616Z,102238.28
2023-04-02T20:41:09.295Z,102236.75
2023-04-02T20:43:37.629Z,102242.88
2023-04-02T20:46:08.366Z,102245.50
2023-04-02T20:48:37.100Z,102240.31
2023-04-02T20:51:05.581Z,102253.59
2023-04-02T20:53:34.660Z,102247.44
2023-04-02T21:17:30.367Z,102265.91
2023-04-02T22:05:35.101Z,102314.78
2023-04-02T22:08:01.660Z,102313.50
2023-04-02T22:10:28.165Z,102312.56
2023-04-02T22:12:54.860Z,102318.47
2023-04-02T22:15:21.400Z,102315.03
2023-04-02T22:17:47.930Z,102317.06
2023-04-02T22:20:14.468Z,102323.97
2023-04-02T22:22:40.885Z,102321.31
2023-04-02T22:25:07.798Z,102321.34
2023-04-02T22:27:34.506Z,102327.47
2023-04-02T22:30:01.092Z,102331.16
2023-04-02T22:32:27.680Z,102333.00
2023-04-02T22:34:54.173Z,102333.94
2023-04-02T22:37:20.790Z,102334.56
2023-04-02T22:39:47.307Z,102340.75
2023-04-02T22:42:13.760Z,102340.31
2023-04-02T22:44:40.207Z,102348.28
2023-04-02T22:47:06.789Z,102352.47
2023-04-02T22:49:33.388Z,102352.72
2023-04-02T22:51:59.879Z,102354.22
2023-04-02T22:54:26.349Z,102362.00
2023-04-02T22:56:52.872Z,102358.00
2023-04-02T22:59:19.294Z,102361.34
2023-04-02T23:01:45.825Z,102370.22
2023-04-02T23:04:12.745Z,102366.66
2023-04-02T23:06:39.292Z,102369.56
2023-04-02T23:09:05.866Z,102374.66
2023-04-02T23:11:32.514Z,102373.00
2023-04-02T23:13:59.046Z,102381.72
2023-04-02T23:16:28.356Z,102380.03
2023-04-02T23:18:55.469Z,102377.53
2023-04-02T23:21:22.277Z,102389.91
2023-04-02T23:23:49.272Z,102382.00
2023-04-02T23:26:32.266Z,102377.59
2023-04-02T23:29:00.376Z,102384.53
2023-04-02T23:31:26.877Z,102382.16
2023-04-02T23:33:54.123Z,102397.91
2023-04-02T23:36:22.422Z,102380.50
2023-04-02T23:38:51.037Z,102393.50
2023-04-02T23:41:17.844Z,102392.59
2023-04-02T23:43:44.322Z,102388.31
2023-04-02T23:46:10.966Z,102397.25
2023-04-02T23:48:37.604Z,102401.38
2023-04-02T23:51:04.361Z,102395.19
2023-04-02T23:53:30.938Z,102405.72
2023-04-02T23:55:57.691Z,102398.63
2023-04-02T23:58:24.175Z,102405.72
